createdAt,value
2023-02-27T00:01:11.957Z,99180.26
2023-02-27T00:04:28.340Z,99176.71
2023-02-27T00:07:44.908Z,99183.61
2023-02-27T00:11:01.343Z,99175.46
2023-02-27T00:14:18.075Z,99184.02
2023-02-27T00:17:36.812Z,99183.29
2023-02-27T00:20:53.291Z,99173.98
2023-02-27T00:24:10.608Z,99182.64
2023-02-27T00:27:27.274Z,99172.94
2023-02-27T00:30:44.958Z,99182.02
2023-02-27T00:34:01.286Z,99185.98
2023-02-27T00:37:18.583Z,99195.77
2023-02-27T00:40:36.832Z,99191.52
2023-02-27T00:43:53.359Z,99188.99
2023-02-27T00:47:09.759Z,99194.53
2023-02-27T00:50:28.788Z,99189.81
2023-02-27T00:53:48.035Z,99192.84
2023-02-27T00:57:04.140Z,99193.55
2023-02-27T01:00:31.634Z,99184.78
2023-02-27T01:03:48.931Z,99190.83
2023-02-27T01:07:05.845Z,99197.02
2023-02-27T01:10:22.667Z,99197.95
2023-02-27T01:13:40.246Z,99193.98
2023-02-27T01:20:15.826Z,99196.28
2023-02-27T01:23:38.038Z,99201.39
2023-02-27T01:26:55.269Z,99203.38
2023-02-27T01:35:09.127Z,99208.71
2023-02-27T01:38:25.638Z,99213.19
2023-02-27T01:41:44.192Z,99215.92
2023-02-27T01:50:03.404Z,99224.48
2023-02-27T01:53:21.417Z,99223.63
2023-02-27T01:56:40.445Z,99221.77
2023-02-27T01:59:59.375Z,99227.92
2023-02-27T02:03:27.416Z,99218.41
2023-02-27T02:06:48.428Z,99219.47
2023-02-27T02:10:08.562Z,99215.92
2023-02-27T02:13:26.032Z,99209.14
2023-02-27T02:20:36.620Z,99206.64
2023-02-27T02:24:48.437Z,99209.79
2023-02-27T02:28:16.303Z,99209.48
2023-02-27T02:35:34.510Z,99223.34
2023-02-27T02:39:28.065Z,99229.73
2023-02-27T02:42:50.925Z,99234.31
2023-02-27T02:46:15.703Z,99230.14
2023-02-27T02:49:38.168Z,99239.53
2023-02-27T02:53:02.068Z,99243.30
2023-02-27T02:56:23.839Z,99256.35
2023-02-27T02:59:45.625Z,99257.39
2023-02-27T03:03:06.532Z,99258.33
2023-02-27T03:06:28.252Z,99264.18
2023-02-27T03:09:51.519Z,99257.51
2023-02-27T03:13:14.224Z,99261.05
2023-02-27T03:16:34.981Z,99257.70
2023-02-27T03:19:57.438Z,99261.88
2023-02-27T03:23:18.322Z,99267.09
2023-02-27T03:26:39.706Z,99275.03
2023-02-27T03:30:00.965Z,99290.46
2023-02-27T03:33:22.789Z,99295.27
2023-02-27T03:36:47.596Z,99287.44
2023-02-27T03:40:11.805Z,99290.91
2023-02-27T03:43:33.500Z,99292.77
2023-02-27T03:46:50.245Z,99297.98
2023-02-27T03:50:06.705Z,99300.41
2023-02-27T03:53:31.300Z,99306.04
2023-02-27T03:56:52.673Z,99311.14
2023-02-27T04:00:10.880Z,99313.87
2023-02-27T04:03:30.464Z,99316.48
2023-02-27T04:07:03.918Z,99328.56
2023-02-27T04:10:31.897Z,99323.27
2023-02-27T04:14:05.413Z,99332.77
2023-02-27T04:20:53.719Z,99339.44
2023-02-27T04:24:15.368Z,99343.92
2023-02-27T04:27:39.822Z,99341.20
2023-02-27T04:36:34.902Z,99353.30
2023-02-27T04:39:56.846Z,99356.02
2023-02-27T04:43:16.315Z,99362.06
2023-02-27T04:46:36.394Z,99348.48
2023-02-27T04:49:57.304Z,99356.09
2023-02-27T04:53:20.186Z,99350.80
2023-02-27T04:56:40.475Z,99361.23
2023-02-27T05:00:00.584Z,99355.16
2023-02-27T05:03:21.698Z,99367.39
2023-02-27T05:06:41.910Z,99361.95
2023-02-27T05:10:02.780Z,99355.70
2023-02-27T05:13:24.149Z,99367.70
2023-02-27T05:19:56.109Z,99365.02
2023-02-27T05:23:18.646Z,99373.26
2023-02-27T05:26:44.892Z,99376.72
2023-02-27T05:30:04.930Z,99379.11
2023-02-27T05:33:26.165Z,99380.05
2023-02-27T05:36:46.407Z,99385.91
2023-02-27T05:40:09.089Z,99382.36
2023-02-27T05:43:30.299Z,99388.41
2023-02-27T05:46:51.218Z,99392.69
2023-02-27T05:50:12.441Z,99394.48
2023-02-27T05:53:33.091Z,99395.52
2023-02-27T05:56:51.097Z,99394.26
2023-02-27T06:00:12.575Z,99404.28
2023-02-27T06:03:29.083Z,99408.75
2023-02-27T06:06:48.069Z,99405.43
2023-02-27T06:10:04.326Z,99406.14
2023-02-27T06:13:20.994Z,99405.43
2023-02-27T06:16:38.890Z,99419.30
2023-02-27T06:19:55.402Z,99422.02
2023-02-27T06:23:12.041Z,99417.44
2023-02-27T06:26:28.492Z,99414.72
2023-02-27T06:29:45.027Z,99418.16
2023-02-27T06:33:01.875Z,99424.13
2023-02-27T06:36:18.840Z,99421.63
2023-02-27T06:39:35.057Z,99421.41
2023-02-27T06:42:52.838Z,99423.83
2023-02-27T06:46:09.261Z,99426.97
2023-02-27T06:49:25.473Z,99429.25
2023-02-27T06:52:43.479Z,99432.30
2023-02-27T06:56:00.146Z,99434.80
2023-02-27T06:59:17.121Z,99440.84
2023-02-27T07:02:34.053Z,99445.13
2023-02-27T07:05:50.476Z,99440.95
2023-02-27T07:09:07.219Z,99449.53
2023-02-27T07:12:23.744Z,99452.03
2023-02-27T07:15:40.011Z,99455.36
2023-02-27T07:19:08.797Z,99452.33
2023-02-27T07:23:01.330Z,99458.40
2023-02-27T07:26:19.533Z,99453.79
2023-02-27T07:29:36.903Z,99455.05
2023-02-27T07:32:59.612Z,99462.66
2023-02-27T07:36:17.782Z,99469.56
2023-02-27T07:39:35.267Z,99465.78
2023-02-27T07:42:53.588Z,99483.94
2023-02-27T07:46:13.316Z,99471.63
2023-02-27T07:49:29.871Z,99480.75
2023-02-27T07:52:53.647Z,99479.41
2023-02-27T07:56:13.174Z,99481.92
2023-02-27T07:59:34.165Z,99485.88
2023-02-27T08:02:54.930Z,99491.11
2023-02-27T08:06:20.577Z,99483.09
2023-02-27T08:09:39.616Z,99485.63
2023-02-27T08:12:58.019Z,99497.09
2023-02-27T08:16:17.078Z,99500.67
2023-02-27T08:22:50.604Z,99502.02
2023-02-27T08:26:07.681Z,99516.35
2023-02-27T08:29:25.736Z,99523.03
2023-02-27T08:32:46.825Z,99522.33
2023-02-27T08:36:07.042Z,99517.30
2023-02-27T08:39:24.951Z,99521.51
2023-02-27T08:42:46.377Z,99522.03
2023-02-27T08:46:03.541Z,99528.19
2023-02-27T08:49:25.115Z,99518.70
2023-02-27T08:52:41.823Z,99523.38
2023-02-27T08:56:01.888Z,99522.95
2023-02-27T08:59:19.158Z,99530.18
2023-02-27T09:05:53.370Z,99539.98
2023-02-27T09:09:11.377Z,99543.23
2023-02-27T09:12:28.316Z,99549.41
2023-02-27T09:15:45.225Z,99549.67
2023-02-27T09:22:19.584Z,99560.88
2023-02-27T09:25:46.635Z,99560.77
2023-02-27T09:29:01.389Z,99571.13
2023-02-27T09:35:35.783Z,99578.66
2023-02-27T09:38:53.050Z,99560.22
2023-02-27T09:42:17.666Z,99569.64
2023-02-27T09:45:38.966Z,99567.02
2023-02-27T09:52:11.913Z,99570.33
2023-02-27T09:55:31.761Z,99571.89
2023-02-27T09:58:57.598Z,99573.56
2023-02-27T10:02:28.865Z,99581.34
2023-02-27T10:05:51.539Z,99585.90
2023-02-27T10:09:19.147Z,99578.22
2023-02-27T10:12:57.495Z,99579.09
2023-02-27T10:16:22.583Z,99591.42
2023-02-27T10:19:43.470Z,99587.37
2023-02-27T10:23:06.549Z,99592.20
2023-02-27T10:26:30.827Z,99593.94
2023-02-27T10:29:50.049Z,99588.75
2023-02-27T10:33:18.462Z,99586.16
2023-02-27T10:36:36.863Z,99581.35
2023-02-27T10:39:58.006Z,99592.45
2023-02-27T10:43:19.989Z,99588.81
2023-02-27T10:46:43.879Z,99588.94
2023-02-27T10:50:02.186Z,99594.05
2023-02-27T10:53:30.766Z,99584.55
2023-02-27T10:56:48.383Z,99583.50
2023-02-27T11:00:11.117Z,99590.95
2023-02-27T11:06:43.781Z,99589.27
2023-02-27T11:10:11.209Z,99594.81
2023-02-27T11:13:33.637Z,99596.39
2023-02-27T11:17:04.126Z,99590.42
2023-02-27T11:20:43.599Z,99600.28
2023-02-27T11:24:08.674Z,99602.98
2023-02-27T11:27:34.292Z,99609.67
2023-02-27T11:30:52.704Z,99601.08
2023-02-27T11:34:10.239Z,99597.08
2023-02-27T11:37:34.579Z,99600.50
2023-02-27T11:41:00.118Z,99592.77
2023-02-27T11:44:24.055Z,99593.50
2023-02-27T11:47:48.520Z,99591.29
2023-02-27T11:51:28.913Z,99589.61
2023-02-27T11:54:50.891Z,99589.79
2023-02-27T11:58:13.577Z,99588.33
2023-02-27T12:01:34.074Z,99586.75
2023-02-27T12:04:56.979Z,99589.08
2023-02-27T12:08:19.733Z,99585.68
2023-02-27T12:11:40.500Z,99586.75
2023-02-27T12:15:06.097Z,99587.00
2023-02-27T12:21:44.189Z,99596.03
2023-02-27T12:25:05.439Z,99595.63
2023-02-27T12:28:51.933Z,99600.66
2023-02-27T12:32:16.696Z,99605.33
2023-02-27T12:38:50.115Z,99612.13
2023-02-27T12:43:01.163Z,99618.72
2023-02-27T12:46:47.919Z,99614.66
2023-02-27T12:50:15.363Z,99612.72
2023-02-27T12:53:43.601Z,99615.87
2023-02-27T12:57:30.330Z,99620.40
2023-02-27T13:00:52.676Z,99623.84
2023-02-27T13:07:30.618Z,99632.95
2023-02-27T13:10:54.447Z,99629.41
2023-02-27T13:14:20.390Z,99637.02
2023-02-27T13:17:47.374Z,99639.63
2023-02-27T13:21:09.519Z,99643.28
2023-02-27T13:24:36.148Z,99635.05
2023-02-27T13:28:01.364Z,99635.12
2023-02-27T13:31:29.621Z,99638.23
2023-02-27T13:34:54.447Z,99638.88
2023-02-27T13:38:29.275Z,99634.48
2023-02-27T13:41:49.163Z,99637.66
2023-02-27T13:45:12.780Z,99637.30
2023-02-27T13:55:11.801Z,99632.84
2023-02-27T13:58:29.811Z,99630.77
2023-02-27T14:01:52.096Z,99630.47
2023-02-27T14:05:13.159Z,99628.27
2023-02-27T14:08:32.722Z,99630.48
2023-02-27T14:12:02.473Z,99630.38
2023-02-27T14:15:52.038Z,99633.73
2023-02-27T14:19:12.649Z,99641.16
2023-02-27T14:23:07.194Z,99643.14
2023-02-27T14:26:29.392Z,99643.85
2023-02-27T14:29:49.603Z,99655.70
2023-02-27T14:33:13.152Z,99650.28
2023-02-27T14:36:33.827Z,99646.51
2023-02-27T14:39:52.873Z,99648.82
2023-02-27T14:43:24.392Z,99657.49
2023-02-27T14:46:44.840Z,99656.45
2023-02-27T14:50:05.561Z,99667.20
2023-02-27T14:53:42.411Z,99663.02
2023-02-27T14:57:12.200Z,99663.13
2023-02-27T15:00:44.425Z,99659.28
2023-02-27T15:07:06.415Z,99670.75
2023-02-27T15:10:32.626Z,99677.66
2023-02-27T15:13:50.745Z,99679.45
2023-02-27T15:17:07.332Z,99683.28
2023-02-27T15:20:37.088Z,99688.38
2023-02-27T15:24:03.672Z,99689.92
2023-02-27T15:27:29.282Z,99691.68
2023-02-27T15:30:46.287Z,99700.27
2023-02-27T15:34:04.662Z,99699.23
2023-02-27T15:37:28.184Z,99706.22
2023-02-27T15:40:44.722Z,99710.72
2023-02-27T15:44:01.859Z,99719.21
2023-02-27T15:47:21.963Z,99717.92
2023-02-27T15:50:42.027Z,99723.33
2023-02-27T15:54:04.393Z,99732.20
2023-02-27T15:57:21.796Z,99734.74
2023-02-27T16:00:42.111Z,99737.43
2023-02-27T16:07:11.562Z,99740.36
2023-02-27T16:10:32.694Z,99745.66
2023-02-27T16:13:50.528Z,99745.77
2023-02-27T16:17:10.505Z,99739.98
2023-02-27T16:23:33.546Z,99751.91
2023-02-27T16:26:58.450Z,99751.38
2023-02-27T16:30:22.612Z,99760.24
2023-02-27T16:33:43.635Z,99764.64
2023-02-27T16:40:03.755Z,99777.16
2023-02-27T16:43:20.126Z,99782.07
2023-02-27T16:46:37.993Z,99778.80
2023-02-27T16:49:54.576Z,99783.20
2023-02-27T16:53:12.257Z,99791.05
2023-02-27T16:56:38.220Z,99799.08
2023-02-27T16:59:47.286Z,99799.25
2023-02-27T17:03:06.141Z,99801.05
2023-02-27T17:06:25.606Z,99801.70
2023-02-27T17:09:40.042Z,99813.73
2023-02-27T17:12:57.280Z,99813.73
2023-02-27T17:16:15.301Z,99812.77
2023-02-27T17:25:40.149Z,99819.30
2023-02-27T17:28:59.537Z,99830.67
2023-02-27T17:32:16.473Z,99827.34
2023-02-27T17:35:34.021Z,99834.25
2023-02-27T17:38:50.827Z,99840.41
2023-02-27T17:42:06.969Z,99837.69
2023-02-27T17:45:26.895Z,99841.88
2023-02-27T17:48:44.414Z,99841.72
2023-02-27T17:52:01.926Z,99836.77
2023-02-27T17:55:20.985Z,99834.25
2023-02-27T17:58:36.319Z,99846.36
2023-02-27T18:01:55.203Z,99845.53
2023-02-27T18:05:12.368Z,99841.98
2023-02-27T18:08:29.617Z,99849.73
2023-02-27T18:11:46.629Z,99849.83
2023-02-27T18:15:04.104Z,99854.39
2023-02-27T18:18:21.487Z,99847.69
2023-02-27T18:24:41.800Z,99859.16
2023-02-27T18:27:58.558Z,99860.75
2023-02-27T18:31:24.616Z,99862.60
2023-02-27T18:34:42.057Z,99865.97
2023-02-27T18:37:59.142Z,99869.52
2023-02-27T18:41:16.559Z,99877.45
2023-02-27T18:44:34.066Z,99882.58
2023-02-27T18:47:51.996Z,99885.19
2023-02-27T18:51:15.519Z,99886.88
2023-02-27T18:54:32.636Z,99886.88
2023-02-27T18:57:52.901Z,99889.48
2023-02-27T19:01:25.422Z,99893.29
2023-02-27T19:05:37.623Z,99895.14
2023-02-27T19:08:55.888Z,99904.00
2023-02-27T19:12:16.287Z,99901.33
2023-02-27T19:15:31.929Z,99911.02
2023-02-27T19:18:48.702Z,99916.41
2023-02-27T19:22:06.131Z,99915.77
2023-02-27T19:25:26.100Z,99921.72
2023-02-27T19:28:42.553Z,99917.72
2023-02-27T19:32:03.012Z,99917.13
2023-02-27T19:41:27.798Z,99914.61
2023-02-27T19:44:45.974Z,99924.13
2023-02-27T19:48:03.322Z,99922.09
2023-02-27T19:51:22.057Z,99926.64
2023-02-27T19:54:39.368Z,99930.02
2023-02-27T19:57:58.682Z,99918.08
2023-02-27T20:01:17.733Z,99926.64
2023-02-27T20:04:35.372Z,99922.28
2023-02-27T20:07:53.843Z,99931.87
2023-02-27T20:11:14.633Z,99940.63
2023-02-27T20:14:33.654Z,99944.26
2023-02-27T20:17:50.644Z,99944.20
2023-02-27T20:21:22.770Z,99945.95
2023-02-27T20:24:39.496Z,99952.09
2023-02-27T20:28:00.313Z,99953.05
2023-02-27T20:31:22.104Z,99948.75
2023-02-27T20:34:41.957Z,99953.97
2023-02-27T20:37:58.738Z,99960.28
2023-02-27T20:41:17.465Z,99952.55
2023-02-27T20:44:34.278Z,99954.99
2023-02-27T20:47:51.194Z,99955.82
2023-02-27T20:51:16.073Z,99949.84
2023-02-27T20:54:34.244Z,99957.60
2023-02-27T20:57:52.261Z,99952.45
2023-02-27T21:01:11.148Z,99951.71
2023-02-27T21:04:36.955Z,99961.39
2023-02-27T21:07:53.640Z,99960.38
2023-02-27T21:11:29.085Z,99949.11
2023-02-27T21:14:44.515Z,99950.79
2023-02-27T21:18:01.884Z,99945.47
2023-02-27T21:21:23.684Z,99942.00
2023-02-27T21:24:40.256Z,99950.69
2023-02-27T21:27:57.001Z,99954.48
2023-02-27T21:31:16.594Z,99964.93
2023-02-27T21:34:35.217Z,99964.00
2023-02-27T21:37:53.511Z,99966.04
2023-02-27T21:41:14.263Z,99963.23
2023-02-27T21:44:32.788Z,99971.07
2023-02-27T21:47:49.666Z,99978.08
2023-02-27T21:51:09.661Z,99977.92
2023-02-27T21:54:27.013Z,99972.77
2023-02-27T21:57:45.140Z,99972.03
2023-02-27T22:01:01.368Z,99981.03
2023-02-27T22:04:17.802Z,99982.53
2023-02-27T22:07:38.073Z,99987.27
2023-02-27T22:10:52.178Z,99984.57
2023-02-27T22:14:08.530Z,99982.82
2023-02-27T22:17:25.279Z,99980.94
2023-02-27T22:20:43.683Z,99978.42
2023-02-27T22:24:01.908Z,99987.27
2023-02-27T22:27:18.626Z,99979.44
2023-02-27T22:30:37.680Z,99981.86
2023-02-27T22:33:57.014Z,99989.69
2023-02-27T22:37:14.559Z,99983.55
2023-02-27T22:40:32.820Z,99989.88
2023-02-27T22:43:51.140Z,99982.14
2023-02-27T22:47:07.397Z,99994.44
2023-02-27T22:50:24.383Z,99993.52
2023-02-27T22:53:43.244Z,99989.98
2023-02-27T22:57:01.482Z,99984.76
2023-02-27T23:00:21.647Z,99994.34
2023-02-27T23:03:37.890Z,99999.50
2023-02-27T23:09:57.373Z,100000.77
2023-02-27T23:13:20.504Z,99998.49
2023-02-27T23:16:37.858Z,99994.10
2023-02-27T23:19:55.362Z,99993.38
2023-02-27T23:23:14.604Z,100002.02
2023-02-27T23:26:29.073Z,100000.43
2023-02-27T23:29:45.111Z,99993.77
2023-02-27T23:33:01.548Z,100001.69
2023-02-27T23:36:18.591Z,99998.16
2023-02-27T23:39:35.162Z,99989.75
2023-02-27T23:42:51.841Z,99996.72
2023-02-27T23:46:16.238Z,100002.95
2023-02-27T23:49:32.957Z,100010.09
2023-02-27T23:52:49.538Z,100011.20
2023-02-27T23:56:07.283Z,100010.04
2023-02-27T23:59:23.952Z,100018.78
